Lake Fork, Illinois
Current Conditions -  °F | °C
As of 5:15 AM on Saturday 01 Nov 2014 (Local Time) from KAAA Reporting Station
Clear Clear  
Wind Chill: -4°   Ceiling: Unl
Heat Index: -2°   Visibility: 10mi
Dew Point: -5°   Wind: 5mph
Humidity: 76%   Direction: 300°WNW
Pressure: 30.42"   Gusts: NA
Location:  39.97°N, 89.35°W
Report Text: KAAA 011015Z AUTO 30004KT 10SM CLR M01/M05 A3042 RMK AO2 T10151053
Loading
Personal Weather Stations






























Interactive Weather Map
Tropical Storm Tracking
New forecast layout! Learn more

10-Day Weather Forecast

Advertisements
Track Severe Weather on mobile